Time;durP1;ratioP1;P1;durP2;ratioP2;P2;SDS_P1;SDS_P2;PMS_P1;PMS_P2;Temp;Humidity;BMP_temperature;BMP_pressure;BME280_temperature;BME280_humidity;BME280_pressure;Samples;Min_cycle;Max_cycle;Signal;HPM_P1;HPM_P2
2021/10/15 00:02:21;;;;;;;58.40;2.78;;;5.20;1.00;;;;;;5092042;28;20208;-73
2021/10/15 00:04:49;;;;;;;58.50;2.80;;;5.20;1.00;;;;;;5092149;28;20252;-73
2021/10/15 00:07:16;;;;;;;58.60;2.78;;;5.10;1.00;;;;;;5091702;28;20219;-73
2021/10/15 00:09:43;;;;;;;58.97;3.20;;;5.10;1.00;;;;;;5091675;28;20803;-73
2021/10/15 00:12:10;;;;;;;58.70;2.83;;;5.10;1.00;;;;;;5094634;28;20312;-73
2021/10/15 00:14:37;;;;;;;58.78;3.03;;;5.10;1.00;;;;;;5096160;28;20214;-73
2021/10/15 00:17:04;;;;;;;58.58;3.03;;;5.10;1.00;;;;;;5095689;28;20291;-73
2021/10/15 00:19:31;;;;;;;58.65;2.90;;;5.00;1.00;;;;;;5096054;28;20310;-73
2021/10/15 00:21:59;;;;;;;58.58;3.08;;;5.00;1.00;;;;;;5096053;28;20214;-73
2021/10/15 00:24:26;;;;;;;58.90;3.20;;;5.00;1.00;;;;;;5095948;28;20676;-73
2021/10/15 00:26:53;;;;;;;58.55;2.85;;;5.00;1.00;;;;;;5095085;28;20224;-73
2021/10/15 00:29:20;;;;;;;58.67;2.83;;;5.00;1.00;;;;;;5095777;28;20256;-73
2021/10/15 00:31:46;;;;;;;58.72;3.15;;;5.00;1.00;;;;;;5095695;28;20269;-74
2021/10/15 00:34:13;;;;;;;58.67;3.08;;;5.00;1.00;;;;;;5095542;28;20728;-72
2021/10/15 00:36:40;;;;;;;60.72;3.35;;;5.00;1.00;;;;;;5095034;28;20247;-73
2021/10/15 00:39:08;;;;;;;58.58;2.90;;;5.00;1.00;;;;;;5095296;28;20311;-72
2021/10/15 00:41:35;;;;;;;58.70;3.22;;;5.00;1.00;;;;;;5095816;28;20291;-73
2021/10/15 00:44:04;;;;;;;58.67;2.85;;;5.00;1.00;;;;;;5095199;28;20207;-73
2021/10/15 00:46:31;;;;;;;58.78;2.92;;;5.00;1.00;;;;;;5095024;28;20239;-72
2021/10/15 00:48:58;;;;;;;58.53;2.90;;;5.00;1.00;;;;;;5095276;28;20260;-72
2021/10/15 00:51:25;;;;;;;58.47;2.97;;;5.00;1.00;;;;;;5095297;28;20287;-73
2021/10/15 00:53:52;;;;;;;58.90;3.08;;;5.00;1.00;;;;;;5094925;28;20200;-73
2021/10/15 00:56:21;;;;;;;58.67;3.00;;;5.00;1.00;;;;;;5094963;28;20323;-72
2021/10/15 00:58:48;;;;;;;58.67;2.95;;;4.90;1.00;;;;;;5094986;28;20514;-72
2021/10/15 01:01:14;;;;;;;58.60;2.97;;;4.90;1.00;;;;;;5095143;28;20295;-72
2021/10/15 01:03:41;;;;;;;58.67;3.05;;;4.90;1.00;;;;;;5095057;28;20204;-72
2021/10/15 01:06:08;;;;;;;58.47;3.10;;;4.90;1.00;;;;;;5094709;28;20204;-73
2021/10/15 01:08:38;;;;;;;58.60;3.05;;;4.90;1.00;;;;;;5095023;28;20324;-72
2021/10/15 01:11:06;;;;;;;58.70;3.08;;;4.80;1.00;;;;;;5095021;28;20579;-72
2021/10/15 01:13:34;;;;;;;58.28;2.92;;;4.90;1.00;;;;;;5094860;28;20204;-72
2021/10/15 01:16:05;;;;;;;58.67;3.10;;;4.90;1.00;;;;;;5094480;28;20578;-73
2021/10/15 01:18:32;;;;;;;58.80;3.22;;;4.90;1.00;;;;;;5094844;28;20661;-73
2021/10/15 01:21:01;;;;;;;58.47;3.00;;;4.90;1.00;;;;;;5094627;28;20297;-73
2021/10/15 01:23:28;;;;;;;63.25;3.60;;;4.90;1.00;;;;;;5093231;28;20210;-73
2021/10/15 01:25:55;;;;;;;60.10;3.50;;;4.80;1.00;;;;;;5094107;28;20658;-73
2021/10/15 01:28:23;;;;;;;58.65;3.00;;;4.80;1.00;;;;;;5094714;28;20315;-73
2021/10/15 01:30:50;;;;;;;58.78;2.92;;;4.80;1.00;;;;;;5094484;28;20208;-73
2021/10/15 01:33:18;;;;;;;58.70;3.17;;;4.80;1.00;;;;;;5094372;28;20204;-73
2021/10/15 01:35:45;;;;;;;58.50;2.80;;;4.80;1.00;;;;;;5094025;28;20500;-73
2021/10/15 01:38:15;;;;;;;58.53;3.00;;;4.80;1.00;;;;;;5096482;28;20196;-73
2021/10/15 01:40:42;;;;;;;58.55;2.95;;;4.80;1.00;;;;;;5099086;28;20232;-71
2021/10/15 01:43:11;;;;;;;58.55;2.90;;;4.90;1.00;;;;;;5097671;28;20232;-72
2021/10/15 01:45:37;;;;;;;58.47;2.95;;;4.90;1.00;;;;;;5094310;28;20635;-72
2021/10/15 01:48:05;;;;;;;58.55;2.92;;;4.90;1.00;;;;;;5094164;28;20377;-73
2021/10/15 01:50:32;;;;;;;58.28;2.80;;;4.80;1.00;;;;;;5094240;28;20258;-73
2021/10/15 01:53:01;;;;;;;58.55;3.00;;;4.80;1.00;;;;;;5093947;28;20200;-73
2021/10/15 01:55:29;;;;;;;58.45;3.00;;;4.80;1.00;;;;;;5093523;28;20749;-73
2021/10/15 01:57:56;;;;;;;58.90;2.92;;;4.70;1.00;;;;;;5093782;28;20291;-73
2021/10/15 02:00:23;;;;;;;58.60;3.03;;;4.70;1.00;;;;;;5094166;28;20310;-73
2021/10/15 02:02:50;;;;;;;58.90;3.55;;;4.70;1.00;;;;;;5093893;28;20247;-73
2021/10/15 02:05:18;;;;;;;58.65;2.80;;;4.70;1.00;;;;;;5093580;28;20215;-73
2021/10/15 02:07:46;;;;;;;58.70;3.15;;;4.70;1.00;;;;;;5093019;28;20224;-73
2021/10/15 02:10:15;;;;;;;58.70;3.33;;;4.60;1.00;;;;;;5093563;28;20252;-73
2021/10/15 02:12:44;;;;;;;58.78;3.10;;;4.60;1.00;;;;;;5093767;28;20214;-73
2021/10/15 02:15:12;;;;;;;60.85;4.05;;;4.60;1.00;;;;;;5093382;28;20302;-73
2021/10/15 02:17:39;;;;;;;58.58;2.80;;;4.60;1.00;;;;;;5093420;28;20295;-73
2021/10/15 02:20:08;;;;;;;58.47;2.85;;;4.50;1.00;;;;;;5093787;28;20653;-74
2021/10/15 02:22:35;;;;;;;58.38;2.67;;;4.50;1.00;;;;;;5093356;28;20672;-73
2021/10/15 02:25:02;;;;;;;58.58;2.97;;;4.40;1.00;;;;;;5093040;28;20307;-73
2021/10/15 02:27:29;;;;;;;58.47;2.83;;;4.40;1.00;;;;;;5093367;28;20259;-73
2021/10/15 02:29:57;;;;;;;58.47;2.70;;;4.40;1.00;;;;;;5093252;28;20255;-73
2021/10/15 02:32:24;;;;;;;58.45;2.90;;;4.40;1.00;;;;;;5092946;28;20767;-74
2021/10/15 02:34:51;;;;;;;58.30;2.70;;;4.30;1.00;;;;;;5092774;28;20254;-73
2021/10/15 02:37:18;;;;;;;58.47;3.10;;;4.30;1.00;;;;;;5092950;28;20287;-73
2021/10/15 02:39:45;;;;;;;58.58;2.78;;;4.30;1.00;;;;;;5093284;28;20323;-73
2021/10/15 02:42:12;;;;;;;58.38;2.90;;;4.30;1.00;;;;;;5093356;28;20366;-73
2021/10/15 02:44:39;;;;;;;58.22;3.00;;;4.20;1.00;;;;;;5093024;28;20295;-73
2021/10/15 02:47:07;;;;;;;58.55;2.75;;;4.20;1.00;;;;;;5092883;28;20607;-73
2021/10/15 02:49:34;;;;;;;58.72;2.83;;;4.20;1.00;;;;;;5092806;28;20311;-73
2021/10/15 02:52:01;;;;;;;58.58;2.78;;;4.20;1.00;;;;;;5092717;28;20299;-73
2021/10/15 02:54:28;;;;;;;58.70;2.90;;;4.20;1.00;;;;;;5092689;28;20695;-73
2021/10/15 02:56:54;;;;;;;58.47;2.85;;;4.20;1.00;;;;;;5092719;28;20211;-73
2021/10/15 02:59:21;;;;;;;58.80;2.90;;;4.10;1.00;;;;;;5092825;28;20259;-73
2021/10/15 03:01:49;;;;;;;58.80;3.10;;;4.10;1.00;;;;;;5092743;28;20236;-71
2021/10/15 03:04:17;;;;;;;58.70;2.92;;;4.10;1.00;;;;;;5092625;28;20204;-73
2021/10/15 03:06:44;;;;;;;58.67;2.90;;;4.10;1.00;;;;;;5092449;28;20300;-73
2021/10/15 03:09:11;;;;;;;58.67;2.97;;;4.10;1.00;;;;;;5092569;28;20236;-72
2021/10/15 03:11:38;;;;;;;58.55;2.97;;;4.10;1.00;;;;;;5092678;28;20243;-73
2021/10/15 03:14:04;;;;;;;58.67;2.95;;;4.10;1.00;;;;;;5092646;28;20291;-73
2021/10/15 03:16:31;;;;;;;59.00;3.45;;;4.10;1.00;;;;;;5092282;28;20212;-72
2021/10/15 03:18:58;;;;;;;58.80;3.38;;;4.10;1.00;;;;;;5092172;28;20220;-72
2021/10/15 03:21:26;;;;;;;58.47;2.90;;;4.00;1.00;;;;;;5092610;28;20294;-72
2021/10/15 03:23:53;;;;;;;58.70;3.10;;;4.00;1.00;;;;;;5092444;28;20231;-72
2021/10/15 03:26:20;;;;;;;58.80;3.03;;;4.00;1.00;;;;;;5092171;28;20712;-72
2021/10/15 03:28:47;;;;;;;58.80;3.13;;;4.00;1.00;;;;;;5092232;28;20232;-72
2021/10/15 03:31:13;;;;;;;58.58;2.85;;;4.00;1.00;;;;;;5092456;28;20200;-73
2021/10/15 03:33:40;;;;;;;58.58;3.08;;;4.00;1.00;;;;;;5092079;28;20291;-73
2021/10/15 03:36:07;;;;;;;58.30;2.90;;;4.00;1.00;;;;;;5091927;28;20210;-72
2021/10/15 03:38:35;;;;;;;58.67;3.00;;;4.00;1.00;;;;;;5091995;28;20711;-72
2021/10/15 03:41:02;;;;;;;58.63;3.08;;;4.00;1.00;;;;;;5092328;28;20649;-72
2021/10/15 03:43:29;;;;;;;58.58;3.00;;;4.00;1.00;;;;;;5092504;28;20721;-72
2021/10/15 03:45:56;;;;;;;58.47;2.97;;;3.90;1.00;;;;;;5090981;28;20295;-72
2021/10/15 03:48:23;;;;;;;58.38;2.80;;;3.90;1.00;;;;;;5091617;28;20665;-72
2021/10/15 03:50:50;;;;;;;58.65;3.20;;;3.90;1.00;;;;;;5092291;28;20287;-72
2021/10/15 03:53:16;;;;;;;58.50;3.03;;;3.90;1.00;;;;;;5092318;28;20459;-72
2021/10/15 03:55:45;;;;;;;58.47;2.80;;;3.90;1.00;;;;;;5091963;28;20294;-72
2021/10/15 03:58:12;;;;;;;58.50;2.70;;;3.90;1.80;;;;;;5091856;28;20286;-72
2021/10/15 04:00:38;;;;;;;58.53;2.90;;;3.80;1.70;;;;;;5091945;28;20287;-73
2021/10/15 04:03:05;;;;;;;58.55;3.05;;;3.80;1.70;;;;;;5091945;28;20635;-72
2021/10/15 04:05:32;;;;;;;58.58;2.88;;;3.80;1.70;;;;;;5091408;28;20299;-72
2021/10/15 04:07:59;;;;;;;58.67;2.92;;;3.80;2.20;;;;;;5091571;28;20319;-72
2021/10/15 04:10:26;;;;;;;58.25;3.03;;;3.80;3.10;;;;;;5091940;28;20287;-72
2021/10/15 04:12:54;;;;;;;58.55;3.20;;;3.80;3.50;;;;;;5091814;28;20206;-72
2021/10/15 04:15:21;;;;;;;58.60;2.92;;;3.80;3.80;;;;;;5091485;28;20623;-73
2021/10/15 04:17:48;;;;;;;58.50;3.10;;;3.80;4.30;;;;;;5091835;28;20211;-73
2021/10/15 04:20:15;;;;;;;58.67;2.90;;;3.80;4.50;;;;;;5091945;28;20306;-73
2021/10/15 04:22:42;;;;;;;58.55;2.90;;;3.80;4.90;;;;;;5091848;28;20246;-73
2021/10/15 04:25:09;;;;;;;58.53;2.83;;;3.90;4.30;;;;;;5091473;28;20618;-72
2021/10/15 04:27:36;;;;;;;58.38;2.83;;;3.80;3.90;;;;;;5091714;28;20303;-73
2021/10/15 04:30:05;;;;;;;58.60;2.85;;;3.90;3.70;;;;;;5091560;28;20783;-73
2021/10/15 04:32:32;;;;;;;58.55;2.90;;;3.90;2.80;;;;;;5091789;28;20208;-73
2021/10/15 04:34:59;;;;;;;58.58;3.10;;;3.90;2.30;;;;;;5091443;28;20250;-73
2021/10/15 04:37:26;;;;;;;58.47;2.80;;;3.80;2.10;;;;;;5091437;28;20240;-73
2021/10/15 04:39:53;;;;;;;58.47;2.75;;;3.80;1.10;;;;;;5092064;28;20549;-73
2021/10/15 04:42:20;;;;;;;58.50;3.15;;;3.80;1.00;;;;;;5091386;28;20210;-73
2021/10/15 04:44:47;;;;;;;58.47;2.90;;;3.80;1.00;;;;;;5091609;28;20303;-73
2021/10/15 04:47:15;;;;;;;58.55;2.72;;;3.80;1.00;;;;;;5091318;28;20200;-73
2021/10/15 04:49:42;;;;;;;58.42;2.92;;;3.80;1.00;;;;;;5091264;28;20319;-73
2021/10/15 04:52:09;;;;;;;58.40;2.70;;;3.80;1.00;;;;;;5091422;28;20300;-73
2021/10/15 04:54:36;;;;;;;58.70;3.30;;;3.80;1.00;;;;;;5091506;28;20300;-73
2021/10/15 04:57:03;;;;;;;58.22;3.03;;;3.80;1.00;;;;;;5091984;28;20231;-71
2021/10/15 04:59:30;;;;;;;58.55;2.90;;;3.70;1.00;;;;;;5095244;28;20653;-73
2021/10/15 05:01:57;;;;;;;58.72;3.10;;;3.70;1.00;;;;;;5094932;28;20207;-73
2021/10/15 05:04:25;;;;;;;58.70;3.20;;;3.70;1.00;;;;;;5095206;28;20294;-73
2021/10/15 05:06:52;;;;;;;58.47;2.95;;;3.70;1.00;;;;;;5094541;28;20729;-74
2021/10/15 05:12:06;;;;;;;58.33;3.10;;;3.60;1.00;;;;;;5094626;28;20196;-74
2021/10/15 05:14:34;;;;;;;58.45;3.00;;;3.60;1.00;;;;;;5095216;28;20246;-72
2021/10/15 05:17:02;;;;;;;58.63;3.03;;;3.60;1.00;;;;;;5094576;28;20211;-72
2021/10/15 05:19:31;;;;;;;58.65;3.00;;;3.60;1.00;;;;;;5094746;28;20227;-73
2021/10/15 05:21:57;;;;;;;58.88;2.97;;;3.50;1.00;;;;;;5092193;28;20265;-74
2021/10/15 05:24:24;;;;;;;58.70;3.00;;;3.60;1.00;;;;;;5094460;28;20254;-71
2021/10/15 05:26:51;;;;;;;59.30;3.60;;;3.60;1.00;;;;;;5094323;28;20215;-71
2021/10/15 05:29:18;;;;;;;58.53;2.90;;;3.60;1.00;;;;;;5091892;28;20323;-71
2021/10/15 05:31:45;;;;;;;58.70;3.00;;;3.60;1.00;;;;;;5093841;28;20212;-71
2021/10/15 05:34:12;;;;;;;58.60;2.85;;;3.60;1.00;;;;;;5093763;28;20659;-71
2021/10/15 05:36:41;;;;;;;58.45;2.80;;;3.60;1.00;;;;;;5093184;28;20208;-71
2021/10/15 05:39:08;;;;;;;58.50;3.03;;;3.60;1.00;;;;;;5093605;28;20311;-71
2021/10/15 05:41:35;;;;;;;58.53;3.00;;;3.50;1.00;;;;;;5093796;28;20575;-71
2021/10/15 05:44:02;;;;;;;58.28;2.97;;;3.60;1.00;;;;;;5093923;28;20641;-70
2021/10/15 05:46:29;;;;;;;58.55;3.22;;;3.50;1.00;;;;;;5093229;28;20206;-71
2021/10/15 05:48:56;;;;;;;58.67;2.92;;;3.60;1.00;;;;;;5093565;28;20228;-71
2021/10/15 05:51:24;;;;;;;58.40;3.00;;;3.60;1.00;;;;;;5094040;28;20247;-71
2021/10/15 05:53:56;;;;;;;59.35;4.00;;;3.60;1.00;;;;;;5093855;28;20269;-71
2021/10/15 05:56:42;;;;;;;58.70;3.00;;;3.60;1.00;;;;;;5093360;28;20208;-71
2021/10/15 05:59:08;;;;;;;58.70;3.20;;;3.70;1.00;;;;;;5093499;28;20216;-71
2021/10/15 06:01:36;;;;;;;59.10;3.30;;;3.70;1.00;;;;;;5085693;28;20228;-71
2021/10/15 06:04:35;;;;;;;58.15;2.83;;;3.70;1.00;;;;;;5072829;28;20947;-72
2021/10/15 06:15:15;;;;;;;58.45;2.75;;;3.90;1.00;;;;;;5073002;28;20200;-71
2021/10/15 06:17:45;;;;;;;58.47;2.72;;;4.00;1.00;;;;;;5073142;28;20241;-71
2021/10/15 06:20:13;;;;;;;58.28;2.72;;;4.00;1.00;;;;;;5073038;28;20231;-71
2021/10/15 06:22:40;;;;;;;58.58;3.38;;;4.00;1.00;;;;;;5073490;28;20201;-71
2021/10/15 06:25:09;;;;;;;59.92;3.10;;;4.00;1.00;;;;;;5072880;28;20644;-72
2021/10/15 06:27:36;;;;;;;58.15;2.70;;;4.10;1.00;;;;;;5072637;28;20201;-72
2021/10/15 06:30:04;;;;;;;59.15;3.03;;;4.10;1.00;;;;;;5072366;28;20260;-70
2021/10/15 06:32:31;;;;;;;58.38;2.70;;;4.10;1.00;;;;;;5073172;28;20211;-70
2021/10/15 06:34:58;;;;;;;58.58;2.80;;;4.10;1.00;;;;;;5071079;28;20219;-71
2021/10/15 06:37:25;;;;;;;58.58;2.80;;;4.10;1.00;;;;;;5072751;28;20669;-71
2021/10/15 06:39:52;;;;;;;58.55;3.00;;;4.10;1.00;;;;;;5072697;28;20229;-71
2021/10/15 06:42:20;;;;;;;58.40;2.65;;;4.10;1.00;;;;;;5072942;28;20216;-72
2021/10/15 06:44:47;;;;;;;58.58;3.30;;;4.10;1.00;;;;;;5072668;28;20208;-71
2021/10/15 06:47:14;;;;;;;58.40;2.40;;;4.20;1.00;;;;;;5071963;28;20300;-71
2021/10/15 06:49:41;;;;;;;58.80;3.40;;;4.20;1.00;;;;;;5072018;28;20339;-71
2021/10/15 06:52:08;;;;;;;58.20;2.90;;;4.20;1.00;;;;;;5072191;28;20209;-71
2021/10/15 06:54:34;;;;;;;58.38;2.80;;;4.30;1.00;;;;;;5072523;28;20641;-71
2021/10/15 06:57:02;;;;;;;58.45;2.80;;;4.30;1.00;;;;;;5072157;28;20244;-71
2021/10/15 06:59:30;;;;;;;58.45;2.58;;;4.40;1.00;;;;;;5072475;28;20217;-71
2021/10/15 07:01:57;;;;;;;58.47;2.80;;;4.40;1.00;;;;;;5072156;28;20255;-71
2021/10/15 07:04:24;;;;;;;58.47;2.80;;;4.40;1.00;;;;;;5072491;28;20572;-71
2021/10/15 07:06:51;;;;;;;58.50;2.80;;;4.50;1.90;;;;;;5070192;28;20201;-71
2021/10/15 07:09:18;;;;;;;58.45;2.70;;;4.50;2.90;;;;;;5071825;28;20224;-71
2021/10/15 07:11:47;;;;;;;58.28;2.90;;;4.60;3.90;;;;;;5071975;28;20215;-71
2021/10/15 07:14:14;;;;;;;58.38;3.15;;;4.60;4.70;;;;;;5072404;28;20233;-72
2021/10/15 07:16:42;;;;;;;58.17;2.85;;;4.70;5.90;;;;;;5071599;28;20629;-71
2021/10/15 07:19:09;;;;;;;58.40;2.97;;;4.80;7.70;;;;;;5072365;28;20764;-71
2021/10/15 07:21:37;;;;;;;58.67;3.20;;;4.90;8.90;;;;;;5071594;28;20205;-71
2021/10/15 07:24:04;;;;;;;58.55;3.10;;;5.00;9.60;;;;;;5072476;28;20213;-71
2021/10/15 07:26:31;;;;;;;58.25;2.72;;;5.10;10.80;;;;;;5071513;28;20205;-71
2021/10/15 07:28:58;;;;;;;58.38;2.58;;;5.20;11.50;;;;;;5071533;28;20323;-72
2021/10/15 07:31:25;;;;;;;58.50;3.08;;;5.20;12.20;;;;;;5071561;28;20305;-71
2021/10/15 07:33:53;;;;;;;58.47;2.85;;;5.30;13.00;;;;;;5071956;28;20201;-71
2021/10/15 07:36:20;;;;;;;58.50;3.00;;;5.40;13.50;;;;;;5071324;28;20211;-71
2021/10/15 07:38:47;;;;;;;58.25;2.83;;;5.50;13.70;;;;;;5087255;28;20254;-71
2021/10/15 07:41:13;;;;;;;58.40;2.90;;;5.60;14.10;;;;;;5091950;28;20644;-71
2021/10/15 07:43:41;;;;;;;58.38;2.67;;;5.60;14.20;;;;;;5091917;28;20590;-71
2021/10/15 07:46:08;;;;;;;58.58;3.08;;;5.70;14.30;;;;;;5091929;28;20578;-71
2021/10/15 07:48:35;;;;;;;58.65;3.47;;;5.80;15.40;;;;;;5091617;28;20651;-71
2021/10/15 07:51:03;;;;;;;58.70;3.10;;;5.90;15.30;;;;;;5091653;28;20315;-71
2021/10/15 07:53:30;;;;;;;58.50;2.90;;;6.10;16.30;;;;;;5091440;28;20211;-71
2021/10/15 07:55:57;;;;;;;58.20;3.10;;;6.20;17.60;;;;;;5091306;28;20211;-72
2021/10/15 07:58:24;;;;;;;58.38;2.70;;;6.30;18.30;;;;;;5091626;28;20312;-72
2021/10/15 08:00:50;;;;;;;58.38;2.90;;;6.40;18.80;;;;;;5092067;28;20200;-71
2021/10/15 08:03:17;;;;;;;58.28;2.65;;;6.50;19.10;;;;;;5091865;28;20210;-71
2021/10/15 08:05:44;;;;;;;58.47;2.90;;;6.70;19.70;;;;;;5091675;28;20204;-71
2021/10/15 08:08:13;;;;;;;58.28;2.70;;;6.80;20.50;;;;;;5089529;28;20211;-72
2021/10/15 08:10:39;;;;;;;58.47;3.05;;;7.00;21.10;;;;;;5091271;28;20224;-72
2021/10/15 08:13:07;;;;;;;58.60;2.92;;;7.10;19.90;;;;;;5091189;28;20299;-72
2021/10/15 08:15:34;;;;;;;58.28;2.90;;;7.20;17.40;;;;;;5091318;28;20255;-72
2021/10/15 08:18:00;;;;;;;58.60;2.80;;;7.30;17.50;;;;;;5091514;28;20295;-72
2021/10/15 08:20:27;;;;;;;58.17;2.90;;;7.50;19.10;;;;;;5091655;28;20208;-72
2021/10/15 08:22:55;;;;;;;58.27;2.70;;;7.70;21.00;;;;;;5091453;28;20945;-72
2021/10/15 08:25:24;;;;;;;58.33;2.87;;;7.90;22.30;;;;;;5091325;28;21018;-72
2021/10/15 08:27:51;;;;;;;59.50;3.43;;;8.10;23.20;;;;;;5091604;28;20885;-72
2021/10/15 08:30:18;;;;;;;58.67;2.87;;;8.30;24.10;;;;;;5090974;28;21022;-72
2021/10/15 08:32:44;;;;;;;58.20;2.80;;;8.40;24.40;;;;;;5093442;28;20532;-72
2021/10/15 08:35:13;;;;;;;60.37;5.00;;;8.60;25.80;;;;;;5095243;28;20823;-72
2021/10/15 08:37:40;;;;;;;58.27;2.93;;;8.80;26.90;;;;;;5095018;28;20451;-70
2021/10/15 08:40:08;;;;;;;58.43;2.70;;;9.00;27.80;;;;;;5086848;28;20474;-71
2021/10/15 08:42:38;;;;;;;58.33;2.80;;;9.20;25.00;;;;;;5075237;28;20487;-71
2021/10/15 08:45:06;;;;;;;58.33;3.10;;;9.30;18.30;;;;;;5075126;28;20537;-71
2021/10/15 08:47:33;;;;;;;58.47;2.83;;;9.40;5.60;;;;;;5074721;28;20887;-70
2021/10/15 08:49:59;;;;;;;58.47;3.00;;;9.50;1.00;;;;;;5074491;28;20492;-70
2021/10/15 08:52:26;;;;;;;58.37;3.13;;;9.70;1.00;;;;;;5074237;28;20483;-72
2021/10/15 08:54:53;;;;;;;58.17;2.77;;;9.80;1.00;;;;;;5074431;28;20549;-71
2021/10/15 08:57:20;;;;;;;58.43;2.87;;;9.90;1.00;;;;;;5074398;28;20504;-72
2021/10/15 08:59:50;;;;;;;58.33;2.90;;;10.00;1.00;;;;;;5074986;28;20557;-72
2021/10/15 09:02:18;;;;;;;58.43;3.17;;;10.10;1.00;;;;;;5074717;28;20535;-71
2021/10/15 09:04:48;;;;;;;58.60;3.30;;;10.20;1.00;;;;;;5074640;28;20447;-72
2021/10/15 09:07:16;;;;;;;58.27;2.77;;;10.30;1.00;;;;;;5074680;28;20480;-72
2021/10/15 09:09:44;;;;;;;57.97;2.73;;;10.30;1.00;;;;;;5074329;28;20498;-72
2021/10/15 09:12:12;;;;;;;58.40;3.10;;;10.40;1.00;;;;;;5072665;28;20451;-72
2021/10/15 09:14:40;;;;;;;58.07;2.60;;;10.60;1.00;;;;;;5073922;28;21114;-71
2021/10/15 09:17:09;;;;;;;58.23;2.80;;;10.80;1.00;;;;;;5073822;28;21010;-71
2021/10/15 09:19:40;;;;;;;59.00;2.93;;;11.00;1.00;;;;;;5074145;28;20459;-72
2021/10/15 09:22:19;;;;;;;58.13;2.80;;;11.20;1.00;;;;;;5074566;28;20908;-71
2021/10/15 09:24:53;;;;;;;58.07;2.70;;;11.40;1.00;;;;;;5074191;28;20714;-72
2021/10/15 09:27:26;;;;;;;58.17;2.73;;;11.60;1.00;;;;;;5074081;28;20454;-71
2021/10/15 09:29:59;;;;;;;58.07;2.57;;;11.80;1.00;;;;;;5073666;28;20574;-72
2021/10/15 09:32:29;;;;;;;58.17;2.67;;;12.20;1.00;;;;;;5074168;28;20482;-72
2021/10/15 09:34:57;;;;;;;58.20;2.80;;;12.40;1.00;;;;;;5074116;28;20447;-72
2021/10/15 09:37:25;;;;;;;58.17;2.63;;;13.10;1.00;;;;;;5073551;28;20478;-72
2021/10/15 09:40:02;;;;;;;58.30;2.63;;;14.10;1.00;;;;;;5074144;28;20539;-72
2021/10/15 09:42:30;;;;;;;58.20;2.50;;;15.20;1.00;;;;;;5073867;28;20544;-72
2021/10/15 09:45:02;;;;;;;57.77;2.60;;;16.10;1.00;;;;;;5075554;28;20453;-71
2021/10/15 09:47:30;;;;;;;58.27;2.70;;;16.80;1.00;;;;;;5094298;28;20547;-71
2021/10/15 09:49:59;;;;;;;58.10;2.70;;;17.60;1.00;;;;;;5093695;28;20518;-70
2021/10/15 09:52:33;;;;;;;58.00;2.63;;;18.40;1.00;;;;;;5093621;28;20459;-72
2021/10/15 09:55:05;;;;;;;58.23;2.73;;;19.20;1.00;;;;;;5093345;28;20455;-72
2021/10/15 09:57:34;;;;;;;58.17;2.67;;;19.60;1.00;;;;;;5093443;28;20933;-72
2021/10/15 10:00:03;;;;;;;58.07;2.60;;;19.90;1.00;;;;;;5091638;28;20470;-72
2021/10/15 10:02:33;;;;;;;58.27;2.50;;;20.20;1.00;;;;;;5093731;28;20453;-72
2021/10/15 10:05:00;;;;;;;58.20;2.60;;;20.50;1.00;;;;;;5094062;28;20447;-72
2021/10/15 10:07:27;;;;;;;58.10;2.60;;;20.80;1.00;;;;;;5093526;28;20901;-71
2021/10/15 10:09:54;;;;;;;58.10;2.50;;;21.00;1.00;;;;;;5093232;28;20569;-72
2021/10/15 10:12:21;;;;;;;58.17;2.70;;;21.20;1.00;;;;;;5093473;28;20545;-71
2021/10/15 10:14:49;;;;;;;57.57;2.40;;;21.20;1.00;;;;;;5092821;28;20533;-71
2021/10/15 10:17:22;;;;;;;57.97;2.50;;;21.30;1.00;;;;;;5093101;28;20458;-71
2021/10/15 10:19:53;;;;;;;57.87;2.37;;;21.50;1.00;;;;;;5093312;28;20476;-71
2021/10/15 10:22:22;;;;;;;59.17;3.00;;;21.80;1.00;;;;;;5093657;28;20534;-71
2021/10/15 10:24:53;;;;;;;58.20;2.90;;;22.20;1.00;;;;;;5092970;28;21025;-71
2021/10/15 10:27:32;;;;;;;58.40;2.63;;;22.70;1.00;;;;;;5093246;28;20462;-71
2021/10/15 10:30:00;;;;;;;57.87;2.67;;;23.50;1.00;;;;;;5093027;28;20495;-71
2021/10/15 10:32:28;;;;;;;57.87;2.50;;;24.40;1.00;;;;;;5090534;28;20457;-71
2021/10/15 10:35:27;;;;;;;58.27;2.77;;;24.90;1.00;;;;;;5092742;28;20865;-71
2021/10/15 10:38:29;;;;;;;57.70;2.07;;;24.90;1.00;;;;;;5093194;28;20537;-71
2021/10/15 10:41:28;;;;;;;58.80;2.50;;;24.60;1.00;;;;;;5092558;28;20444;-71
2021/10/15 10:44:11;;;;;;;57.60;2.13;;;24.60;1.00;;;;;;5092850;28;20519;-72
2021/10/15 10:46:39;;;;;;;57.80;2.70;;;24.90;1.00;;;;;;5090910;28;20969;-71
2021/10/15 10:49:19;;;;;;;57.37;2.00;;;25.50;1.00;;;;;;5092601;28;20471;-72
2021/10/15 10:52:17;;;;;;;58.03;2.27;;;26.40;1.00;;;;;;5092614;28;20485;-72
2021/10/15 10:54:46;;;;;;;59.30;2.63;;;27.20;1.00;;;;;;5092366;28;20442;-72
2021/10/15 10:57:23;;;;;;;57.73;2.40;;;27.10;1.00;;;;;;5092514;28;20446;-71
2021/10/15 10:59:52;;;;;;;57.73;2.40;;;27.10;1.00;;;;;;5092717;28;20896;-72
2021/10/15 11:02:20;;;;;;;57.53;2.20;;;27.20;1.00;;;;;;5088173;28;20455;-71
2021/10/15 11:04:59;;;;;;;57.50;2.33;;;27.50;1.00;;;;;;5072341;28;20456;-71
2021/10/15 11:07:29;;;;;;;57.70;2.20;;;27.50;1.00;;;;;;5072019;28;20454;-72
2021/10/15 11:09:58;;;;;;;58.03;2.20;;;27.80;1.00;;;;;;5071892;28;20465;-72
2021/10/15 11:13:00;;;;;;;57.17;2.00;;;28.10;1.00;;;;;;5071424;28;20444;-72
2021/10/15 11:15:31;;;;;;;57.47;2.30;;;28.40;1.00;;;;;;5071576;28;20448;-71
2021/10/15 11:17:58;;;;;;;57.60;2.27;;;28.60;1.00;;;;;;5072467;28;20470;-71
2021/10/15 11:20:28;;;;;;;57.60;2.30;;;28.40;1.00;;;;;;5071457;28;20966;-71
2021/10/15 11:22:57;;;;;;;57.37;2.07;;;27.90;1.00;;;;;;5071997;28;20484;-71
2021/10/15 11:25:26;;;;;;;57.27;2.13;;;27.60;1.00;;;;;;5071697;28;20905;-72
2021/10/15 11:27:55;;;;;;;57.57;2.37;;;27.30;1.00;;;;;;5072042;28;20550;-72
2021/10/15 11:30:24;;;;;;;57.50;2.53;;;27.30;1.00;;;;;;5071578;28;20474;-72
2021/10/15 11:32:51;;;;;;;57.77;2.37;;;27.40;1.00;;;;;;5071347;28;20452;-72
2021/10/15 11:35:22;;;;;;;57.60;2.10;;;27.30;1.00;;;;;;5085155;28;20545;-72
2021/10/15 11:37:53;;;;;;;57.23;2.10;;;27.20;1.00;;;;;;5091782;28;20927;-72
2021/10/15 11:40:24;;;;;;;57.27;2.10;;;27.30;1.00;;;;;;5091876;28;20569;-72
2021/10/15 11:42:51;;;;;;;58.23;3.03;;;27.40;1.00;;;;;;5092492;28;20457;-72
2021/10/15 11:45:23;;;;;;;57.70;2.60;;;27.30;1.00;;;;;;5091859;28;20533;-72
2021/10/15 11:47:58;;;;;;;57.43;2.00;;;27.20;1.00;;;;;;5092269;28;20494;-72
2021/10/15 11:50:36;;;;;;;57.23;2.00;;;27.60;1.00;;;;;;5092108;28;20486;-72
2021/10/15 11:53:03;;;;;;;57.70;2.13;;;27.80;1.00;;;;;;5091535;28;20549;-72
2021/10/15 11:55:34;;;;;;;57.27;1.90;;;27.40;1.00;;;;;;5091135;28;20446;-72
2021/10/15 11:58:19;;;;;;;57.60;2.20;;;27.00;1.00;;;;;;5091591;28;20431;-72
2021/10/15 12:01:01;;;;;;;57.30;1.97;;;26.80;1.00;;;;;;5091696;28;20478;-72
2021/10/15 12:03:29;;;;;;;57.60;2.30;;;26.90;1.00;;;;;;5091827;28;20829;-72
2021/10/15 12:05:56;;;;;;;57.57;2.40;;;27.00;1.00;;;;;;5082356;28;20447;-72
2021/10/15 12:08:24;;;;;;;57.57;2.20;;;26.60;1.00;;;;;;5074729;28;20503;-70
2021/10/15 12:10:53;;;;;;;58.40;2.67;;;25.80;1.00;;;;;;5075842;28;20530;-70
2021/10/15 12:13:20;;;;;;;59.80;2.10;;;25.20;1.00;;;;;;5075220;28;20559;-70
2021/10/15 12:15:47;;;;;;;57.80;2.60;;;25.00;1.00;;;;;;5074689;28;20531;-70
2021/10/15 12:18:14;;;;;;;58.00;2.60;;;25.00;1.00;;;;;;5075183;28;20972;-71
2021/10/15 12:20:41;;;;;;;58.10;2.40;;;25.10;1.00;;;;;;5075029;28;20930;-70
2021/10/15 12:23:11;;;;;;;57.60;2.20;;;25.20;1.00;;;;;;5075874;28;20541;-72
2021/10/15 12:25:39;;;;;;;57.47;2.30;;;26.10;1.00;;;;;;5074970;28;20580;-71
2021/10/15 12:28:14;;;;;;;57.60;2.00;;;26.80;1.00;;;;;;5075211;28;20962;-71
2021/10/15 12:30:41;;;;;;;57.40;2.17;;;26.90;1.00;;;;;;5075710;28;20453;-71
2021/10/15 12:33:13;;;;;;;57.80;2.20;;;26.70;1.00;;;;;;5074756;28;20451;-71
2021/10/15 12:35:40;;;;;;;57.80;2.43;;;26.70;1.00;;;;;;5074719;28;20543;-71
2021/10/15 12:38:07;;;;;;;59.30;2.30;;;26.90;1.00;;;;;;5073364;28;20455;-71
2021/10/15 12:40:40;;;;;;;58.97;2.00;;;26.90;1.00;;;;;;5075344;28;20570;-71
2021/10/15 12:43:18;;;;;;;57.17;2.00;;;27.50;1.00;;;;;;5074799;28;20452;-71
2021/10/15 12:45:56;;;;;;;57.40;1.90;;;28.50;1.00;;;;;;5074890;28;20443;-71
2021/10/15 12:48:25;;;;;;;57.90;2.50;;;29.50;1.00;;;;;;5075253;28;20521;-71
2021/10/15 12:51:03;;;;;;;57.90;2.27;;;30.20;1.00;;;;;;5074810;28;20448;-72
2021/10/15 12:53:37;;;;;;;57.50;2.40;;;31.00;1.00;;;;;;5074340;28;20993;-72
2021/10/15 12:56:04;;;;;;;59.23;2.60;;;31.60;1.00;;;;;;5073976;28;20447;-72
2021/10/15 12:58:32;;;;;;;57.30;2.17;;;31.90;1.00;;;;;;5074547;28;21085;-72
2021/10/15 13:01:01;;;;;;;57.47;2.50;;;31.80;1.00;;;;;;5074670;28;20479;-72
2021/10/15 13:03:29;;;;;;;57.50;2.50;;;32.40;1.00;;;;;;5074583;28;20482;-72
2021/10/15 13:05:59;;;;;;;57.30;2.10;;;32.90;1.00;;;;;;5074165;28;20455;-72
2021/10/15 13:08:28;;;;;;;57.60;2.20;;;33.00;1.00;;;;;;5074598;28;20532;-72
2021/10/15 13:10:55;;;;;;;57.23;2.00;;;32.40;1.00;;;;;;5094548;28;20442;-72
2021/10/15 13:13:23;;;;;;;57.33;2.20;;;31.30;1.00;;;;;;5094302;28;20450;-72